sensor_id;sensor_type;location;lat;lon;timestamp;P1;durP1;ratioP1;P2;durP2;ratioP2
45642;SDS011;31358;46.008;11.144;2022-07-18T00:01:42;5.75;;;2.50;;
45642;SDS011;31358;46.008;11.144;2022-07-18T00:04:07;7.35;;;3.22;;
45642;SDS011;31358;46.008;11.144;2022-07-18T00:06:33;6.57;;;3.22;;
45642;SDS011;31358;46.008;11.144;2022-07-18T00:09:00;5.22;;;3.00;;
45642;SDS011;31358;46.008;11.144;2022-07-18T00:11:25;5.15;;;3.35;;
45642;SDS011;31358;46.008;11.144;2022-07-18T00:13:51;8.48;;;3.28;;
45642;SDS011;31358;46.008;11.144;2022-07-18T00:16:17;7.28;;;3.42;;
45642;SDS011;31358;46.008;11.144;2022-07-18T00:18:43;5.72;;;2.90;;
45642;SDS011;31358;46.008;11.144;2022-07-18T00:21:09;5.82;;;3.35;;
45642;SDS011;31358;46.008;11.144;2022-07-18T00:23:35;4.47;;;3.10;;
45642;SDS011;31358;46.008;11.144;2022-07-18T00:26:01;4.97;;;2.97;;
45642;SDS011;31358;46.008;11.144;2022-07-18T00:28:27;4.03;;;2.78;;
45642;SDS011;31358;46.008;11.144;2022-07-18T00:30:53;4.82;;;2.90;;
45642;SDS011;31358;46.008;11.144;2022-07-18T00:33:18;6.20;;;3.38;;
45642;SDS011;31358;46.008;11.144;2022-07-18T00:35:45;4.40;;;3.05;;
45642;SDS011;31358;46.008;11.144;2022-07-18T00:38:10;5.15;;;3.35;;
45642;SDS011;31358;46.008;11.144;2022-07-18T00:40:36;5.68;;;3.13;;
45642;SDS011;31358;46.008;11.144;2022-07-18T00:43:02;5.18;;;3.20;;
45642;SDS011;31358;46.008;11.144;2022-07-18T00:45:28;7.10;;;3.50;;
45642;SDS011;31358;46.008;11.144;2022-07-18T00:47:54;5.25;;;3.38;;
45642;SDS011;31358;46.008;11.144;2022-07-18T00:50:20;5.45;;;3.33;;
45642;SDS011;31358;46.008;11.144;2022-07-18T00:52:47;4.65;;;3.03;;
45642;SDS011;31358;46.008;11.144;2022-07-18T00:55:13;4.15;;;2.80;;
45642;SDS011;31358;46.008;11.144;2022-07-18T00:57:39;8.93;;;3.22;;
45642;SDS011;31358;46.008;11.144;2022-07-18T01:00:07;4.97;;;3.33;;
45642;SDS011;31358;46.008;11.144;2022-07-18T01:03:13;8.85;;;3.00;;
45642;SDS011;31358;46.008;11.144;2022-07-18T01:05:39;5.97;;;2.97;;
45642;SDS011;31358;46.008;11.144;2022-07-18T01:08:05;6.82;;;3.03;;
45642;SDS011;31358;46.008;11.144;2022-07-18T01:10:31;5.43;;;3.22;;
45642;SDS011;31358;46.008;11.144;2022-07-18T01:12:56;7.60;;;3.38;;
45642;SDS011;31358;46.008;11.144;2022-07-18T01:15:22;5.15;;;3.30;;
45642;SDS011;31358;46.008;11.144;2022-07-18T01:17:48;5.32;;;3.00;;
45642;SDS011;31358;46.008;11.144;2022-07-18T01:20:14;5.50;;;3.33;;
45642;SDS011;31358;46.008;11.144;2022-07-18T01:22:40;6.82;;;3.50;;
45642;SDS011;31358;46.008;11.144;2022-07-18T01:25:07;6.38;;;2.90;;
45642;SDS011;31358;46.008;11.144;2022-07-18T01:27:33;5.88;;;3.92;;
45642;SDS011;31358;46.008;11.144;2022-07-18T01:29:59;6.22;;;3.63;;
45642;SDS011;31358;46.008;11.144;2022-07-18T01:32:25;5.30;;;3.00;;
45642;SDS011;31358;46.008;11.144;2022-07-18T01:34:50;4.95;;;3.47;;
45642;SDS011;31358;46.008;11.144;2022-07-18T01:37:16;4.70;;;3.45;;
45642;SDS011;31358;46.008;11.144;2022-07-18T01:39:42;5.70;;;3.50;;
45642;SDS011;31358;46.008;11.144;2022-07-18T01:42:09;6.47;;;3.72;;
45642;SDS011;31358;46.008;11.144;2022-07-18T01:44:36;9.60;;;3.22;;
45642;SDS011;31358;46.008;11.144;2022-07-18T01:47:03;5.22;;;3.28;;
45642;SDS011;31358;46.008;11.144;2022-07-18T01:49:31;6.93;;;3.80;;
45642;SDS011;31358;46.008;11.144;2022-07-18T01:51:57;5.97;;;3.50;;
45642;SDS011;31358;46.008;11.144;2022-07-18T01:54:24;6.43;;;3.42;;
45642;SDS011;31358;46.008;11.144;2022-07-18T01:56:51;7.20;;;3.90;;
45642;SDS011;31358;46.008;11.144;2022-07-18T01:59:17;10.30;;;3.80;;
45642;SDS011;31358;46.008;11.144;2022-07-18T02:01:43;7.88;;;3.85;;
45642;SDS011;31358;46.008;11.144;2022-07-18T02:04:10;7.20;;;4.13;;
45642;SDS011;31358;46.008;11.144;2022-07-18T02:06:36;6.13;;;3.90;;
45642;SDS011;31358;46.008;11.144;2022-07-18T02:09:02;7.15;;;3.80;;
45642;SDS011;31358;46.008;11.144;2022-07-18T02:11:29;5.25;;;3.40;;
45642;SDS011;31358;46.008;11.144;2022-07-18T02:13:55;6.60;;;3.78;;
45642;SDS011;31358;46.008;11.144;2022-07-18T02:16:21;5.53;;;3.40;;
45642;SDS011;31358;46.008;11.144;2022-07-18T02:18:46;6.65;;;3.63;;
45642;SDS011;31358;46.008;11.144;2022-07-18T02:21:12;10.05;;;4.13;;
45642;SDS011;31358;46.008;11.144;2022-07-18T02:23:39;5.88;;;3.50;;
45642;SDS011;31358;46.008;11.144;2022-07-18T02:26:05;7.30;;;3.33;;
45642;SDS011;31358;46.008;11.144;2022-07-18T02:28:31;4.82;;;3.47;;
45642;SDS011;31358;46.008;11.144;2022-07-18T02:30:57;9.57;;;3.60;;
45642;SDS011;31358;46.008;11.144;2022-07-18T02:33:23;7.90;;;3.42;;
45642;SDS011;31358;46.008;11.144;2022-07-18T02:35:48;5.88;;;3.58;;
45642;SDS011;31358;46.008;11.144;2022-07-18T02:38:14;6.47;;;3.97;;
45642;SDS011;31358;46.008;11.144;2022-07-18T02:40:40;5.45;;;3.72;;
45642;SDS011;31358;46.008;11.144;2022-07-18T02:43:05;6.75;;;3.85;;
45642;SDS011;31358;46.008;11.144;2022-07-18T02:45:31;6.07;;;4.18;;
45642;SDS011;31358;46.008;11.144;2022-07-18T02:47:57;8.15;;;4.00;;
45642;SDS011;31358;46.008;11.144;2022-07-18T02:50:22;7.30;;;4.40;;
45642;SDS011;31358;46.008;11.144;2022-07-18T02:52:48;5.28;;;3.42;;
45642;SDS011;31358;46.008;11.144;2022-07-18T02:55:15;6.90;;;4.15;;
45642;SDS011;31358;46.008;11.144;2022-07-18T02:57:41;6.65;;;3.35;;
45642;SDS011;31358;46.008;11.144;2022-07-18T03:00:08;5.38;;;3.83;;
45642;SDS011;31358;46.008;11.144;2022-07-18T03:02:35;9.50;;;4.10;;
45642;SDS011;31358;46.008;11.144;2022-07-18T03:05:02;8.35;;;4.60;;
45642;SDS011;31358;46.008;11.144;2022-07-18T03:07:28;7.07;;;4.53;;
45642;SDS011;31358;46.008;11.144;2022-07-18T03:09:54;8.77;;;4.53;;
45642;SDS011;31358;46.008;11.144;2022-07-18T03:12:20;5.88;;;3.92;;
45642;SDS011;31358;46.008;11.144;2022-07-18T03:14:46;6.50;;;3.83;;
45642;SDS011;31358;46.008;11.144;2022-07-18T03:17:11;8.38;;;4.85;;
45642;SDS011;31358;46.008;11.144;2022-07-18T03:19:37;8.23;;;4.47;;
45642;SDS011;31358;46.008;11.144;2022-07-18T03:22:03;9.68;;;4.85;;
45642;SDS011;31358;46.008;11.144;2022-07-18T03:24:29;6.82;;;4.60;;
45642;SDS011;31358;46.008;11.144;2022-07-18T03:26:55;6.18;;;4.63;;
45642;SDS011;31358;46.008;11.144;2022-07-18T03:29:21;8.35;;;4.38;;
45642;SDS011;31358;46.008;11.144;2022-07-18T03:31:46;8.73;;;3.75;;
45642;SDS011;31358;46.008;11.144;2022-07-18T03:34:12;7.90;;;4.40;;
45642;SDS011;31358;46.008;11.144;2022-07-18T03:36:38;6.15;;;4.18;;
45642;SDS011;31358;46.008;11.144;2022-07-18T03:39:04;9.57;;;3.97;;
45642;SDS011;31358;46.008;11.144;2022-07-18T03:41:30;6.80;;;4.30;;
45642;SDS011;31358;46.008;11.144;2022-07-18T03:43:56;6.43;;;4.35;;
45642;SDS011;31358;46.008;11.144;2022-07-18T03:46:22;6.45;;;4.43;;
45642;SDS011;31358;46.008;11.144;2022-07-18T03:48:48;5.47;;;4.05;;
45642;SDS011;31358;46.008;11.144;2022-07-18T03:51:14;7.07;;;4.85;;
45642;SDS011;31358;46.008;11.144;2022-07-18T03:53:39;7.70;;;4.40;;
45642;SDS011;31358;46.008;11.144;2022-07-18T03:56:06;5.82;;;4.05;;
45642;SDS011;31358;46.008;11.144;2022-07-18T03:58:32;7.47;;;4.82;;
45642;SDS011;31358;46.008;11.144;2022-07-18T04:00:57;9.32;;;4.40;;
45642;SDS011;31358;46.008;11.144;2022-07-18T04:03:23;7.03;;;4.55;;
45642;SDS011;31358;46.008;11.144;2022-07-18T04:05:49;6.40;;;4.22;;
45642;SDS011;31358;46.008;11.144;2022-07-18T04:08:15;5.45;;;3.95;;
45642;SDS011;31358;46.008;11.144;2022-07-18T04:10:40;6.28;;;4.50;;
45642;SDS011;31358;46.008;11.144;2022-07-18T04:13:07;8.98;;;4.50;;
45642;SDS011;31358;46.008;11.144;2022-07-18T04:15:33;6.45;;;3.85;;
45642;SDS011;31358;46.008;11.144;2022-07-18T04:17:59;6.93;;;4.50;;
45642;SDS011;31358;46.008;11.144;2022-07-18T04:20:25;9.13;;;4.47;;
45642;SDS011;31358;46.008;11.144;2022-07-18T04:22:57;7.65;;;4.45;;
45642;SDS011;31358;46.008;11.144;2022-07-18T04:27:51;8.68;;;4.88;;
45642;SDS011;31358;46.008;11.144;2022-07-18T04:30:19;8.60;;;4.82;;
45642;SDS011;31358;46.008;11.144;2022-07-18T04:32:48;9.35;;;5.28;;
45642;SDS011;31358;46.008;11.144;2022-07-18T04:35:14;8.68;;;3.90;;
45642;SDS011;31358;46.008;11.144;2022-07-18T04:37:39;8.30;;;5.28;;
45642;SDS011;31358;46.008;11.144;2022-07-18T04:40:06;7.15;;;5.03;;
45642;SDS011;31358;46.008;11.144;2022-07-18T04:42:33;9.10;;;4.85;;
45642;SDS011;31358;46.008;11.144;2022-07-18T04:44:59;8.52;;;4.72;;
45642;SDS011;31358;46.008;11.144;2022-07-18T04:47:26;11.02;;;4.97;;
45642;SDS011;31358;46.008;11.144;2022-07-18T04:49:52;6.43;;;4.40;;
45642;SDS011;31358;46.008;11.144;2022-07-18T04:52:18;6.45;;;4.25;;
45642;SDS011;31358;46.008;11.144;2022-07-18T04:54:44;10.90;;;4.93;;
45642;SDS011;31358;46.008;11.144;2022-07-18T04:57:10;5.82;;;4.40;;
45642;SDS011;31358;46.008;11.144;2022-07-18T04:59:40;6.68;;;4.50;;
45642;SDS011;31358;46.008;11.144;2022-07-18T05:02:07;8.32;;;4.13;;
45642;SDS011;31358;46.008;11.144;2022-07-18T05:04:33;8.15;;;4.40;;
45642;SDS011;31358;46.008;11.144;2022-07-18T05:07:00;6.70;;;4.38;;
45642;SDS011;31358;46.008;11.144;2022-07-18T05:09:26;6.97;;;4.60;;
45642;SDS011;31358;46.008;11.144;2022-07-18T05:11:52;9.55;;;5.38;;
45642;SDS011;31358;46.008;11.144;2022-07-18T05:14:17;8.48;;;4.88;;
45642;SDS011;31358;46.008;11.144;2022-07-18T05:16:43;6.40;;;4.35;;
45642;SDS011;31358;46.008;11.144;2022-07-18T05:19:09;10.13;;;4.60;;
45642;SDS011;31358;46.008;11.144;2022-07-18T05:21:35;6.72;;;4.10;;
45642;SDS011;31358;46.008;11.144;2022-07-18T05:24:00;7.13;;;4.72;;
45642;SDS011;31358;46.008;11.144;2022-07-18T05:26:26;5.70;;;4.07;;
45642;SDS011;31358;46.008;11.144;2022-07-18T05:28:52;8.57;;;5.28;;
45642;SDS011;31358;46.008;11.144;2022-07-18T05:31:17;6.03;;;4.40;;
45642;SDS011;31358;46.008;11.144;2022-07-18T05:33:43;12.07;;;5.75;;
45642;SDS011;31358;46.008;11.144;2022-07-18T05:36:09;6.85;;;4.38;;
45642;SDS011;31358;46.008;11.144;2022-07-18T05:38:35;7.97;;;4.70;;
45642;SDS011;31358;46.008;11.144;2022-07-18T05:41:01;7.35;;;4.75;;
45642;SDS011;31358;46.008;11.144;2022-07-18T05:43:27;15.13;;;5.40;;
45642;SDS011;31358;46.008;11.144;2022-07-18T05:45:53;7.05;;;4.68;;
45642;SDS011;31358;46.008;11.144;2022-07-18T05:48:18;8.10;;;5.05;;
45642;SDS011;31358;46.008;11.144;2022-07-18T05:50:44;7.78;;;4.88;;
45642;SDS011;31358;46.008;11.144;2022-07-18T05:53:10;7.88;;;4.70;;
45642;SDS011;31358;46.008;11.144;2022-07-18T05:55:36;7.68;;;4.90;;
45642;SDS011;31358;46.008;11.144;2022-07-18T05:58:02;5.38;;;4.18;;
45642;SDS011;31358;46.008;11.144;2022-07-18T06:00:28;6.95;;;4.38;;
45642;SDS011;31358;46.008;11.144;2022-07-18T06:02:54;5.70;;;4.15;;
45642;SDS011;31358;46.008;11.144;2022-07-18T06:05:20;6.85;;;4.38;;
45642;SDS011;31358;46.008;11.144;2022-07-18T06:07:46;8.45;;;4.57;;
45642;SDS011;31358;46.008;11.144;2022-07-18T06:10:12;7.07;;;4.40;;
45642;SDS011;31358;46.008;11.144;2022-07-18T06:12:38;8.15;;;4.72;;
45642;SDS011;31358;46.008;11.144;2022-07-18T06:15:04;8.95;;;4.45;;
45642;SDS011;31358;46.008;11.144;2022-07-18T06:17:32;10.07;;;4.30;;
45642;SDS011;31358;46.008;11.144;2022-07-18T06:19:58;5.95;;;4.88;;
45642;SDS011;31358;46.008;11.144;2022-07-18T06:22:24;7.32;;;4.45;;
45642;SDS011;31358;46.008;11.144;2022-07-18T06:24:49;7.07;;;4.85;;
45642;SDS011;31358;46.008;11.144;2022-07-18T06:27:15;7.78;;;4.38;;
45642;SDS011;31358;46.008;11.144;2022-07-18T06:29:41;7.22;;;4.45;;
45642;SDS011;31358;46.008;11.144;2022-07-18T06:32:07;8.95;;;4.80;;
45642;SDS011;31358;46.008;11.144;2022-07-18T06:34:32;7.13;;;4.40;;
45642;SDS011;31358;46.008;11.144;2022-07-18T06:36:58;9.63;;;5.00;;
45642;SDS011;31358;46.008;11.144;2022-07-18T06:39:24;8.15;;;4.88;;
45642;SDS011;31358;46.008;11.144;2022-07-18T06:41:49;9.10;;;4.28;;
45642;SDS011;31358;46.008;11.144;2022-07-18T06:44:15;6.07;;;4.70;;
45642;SDS011;31358;46.008;11.144;2022-07-18T06:46:41;5.68;;;3.83;;
45642;SDS011;31358;46.008;11.144;2022-07-18T06:49:07;7.32;;;4.97;;
45642;SDS011;31358;46.008;11.144;2022-07-18T06:51:33;11.25;;;4.63;;
45642;SDS011;31358;46.008;11.144;2022-07-18T06:53:59;8.40;;;5.07;;
45642;SDS011;31358;46.008;11.144;2022-07-18T06:56:25;7.63;;;4.75;;
45642;SDS011;31358;46.008;11.144;2022-07-18T06:58:50;7.30;;;4.65;;
45642;SDS011;31358;46.008;11.144;2022-07-18T07:01:18;5.57;;;4.20;;
45642;SDS011;31358;46.008;11.144;2022-07-18T07:03:44;6.97;;;4.53;;
45642;SDS011;31358;46.008;11.144;2022-07-18T07:06:10;7.47;;;5.18;;
45642;SDS011;31358;46.008;11.144;2022-07-18T07:08:37;6.07;;;4.75;;
45642;SDS011;31358;46.008;11.144;2022-07-18T07:11:02;9.40;;;4.70;;
45642;SDS011;31358;46.008;11.144;2022-07-18T07:13:28;6.70;;;4.25;;
45642;SDS011;31358;46.008;11.144;2022-07-18T07:15:54;6.35;;;4.63;;
45642;SDS011;31358;46.008;11.144;2022-07-18T07:18:20;6.45;;;4.53;;
45642;SDS011;31358;46.008;11.144;2022-07-18T07:20:45;13.30;;;5.30;;
45642;SDS011;31358;46.008;11.144;2022-07-18T07:23:11;7.50;;;4.35;;
45642;SDS011;31358;46.008;11.144;2022-07-18T07:25:37;8.57;;;4.50;;
45642;SDS011;31358;46.008;11.144;2022-07-18T07:28:04;6.50;;;4.57;;
45642;SDS011;31358;46.008;11.144;2022-07-18T07:30:30;7.32;;;4.93;;
45642;SDS011;31358;46.008;11.144;2022-07-18T07:32:57;8.90;;;4.80;;
45642;SDS011;31358;46.008;11.144;2022-07-18T07:35:23;6.68;;;4.40;;
45642;SDS011;31358;46.008;11.144;2022-07-18T07:37:50;7.93;;;5.22;;
45642;SDS011;31358;46.008;11.144;2022-07-18T07:40:17;7.80;;;4.57;;
45642;SDS011;31358;46.008;11.144;2022-07-18T07:42:43;9.35;;;4.88;;
45642;SDS011;31358;46.008;11.144;2022-07-18T07:45:09;21.77;;;5.07;;
45642;SDS011;31358;46.008;11.144;2022-07-18T07:47:36;6.63;;;4.63;;
45642;SDS011;31358;46.008;11.144;2022-07-18T07:50:02;6.80;;;4.43;;
45642;SDS011;31358;46.008;11.144;2022-07-18T07:52:29;7.18;;;4.40;;
45642;SDS011;31358;46.008;11.144;2022-07-18T07:54:55;7.65;;;4.68;;
45642;SDS011;31358;46.008;11.144;2022-07-18T07:57:21;7.18;;;4.65;;
45642;SDS011;31358;46.008;11.144;2022-07-18T07:59:47;5.78;;;4.13;;
45642;SDS011;31358;46.008;11.144;2022-07-18T08:02:13;9.73;;;4.78;;
45642;SDS011;31358;46.008;11.144;2022-07-18T08:04:40;8.88;;;5.32;;
45642;SDS011;31358;46.008;11.144;2022-07-18T08:07:06;7.95;;;4.40;;
45642;SDS011;31358;46.008;11.144;2022-07-18T08:09:32;8.05;;;5.13;;
45642;SDS011;31358;46.008;11.144;2022-07-18T08:11:57;9.82;;;4.85;;
45642;SDS011;31358;46.008;11.144;2022-07-18T08:14:23;8.68;;;4.50;;
45642;SDS011;31358;46.008;11.144;2022-07-18T08:16:49;7.40;;;5.03;;
45642;SDS011;31358;46.008;11.144;2022-07-18T08:19:14;7.22;;;5.07;;
45642;SDS011;31358;46.008;11.144;2022-07-18T08:21:40;9.50;;;4.65;;
45642;SDS011;31358;46.008;11.144;2022-07-18T08:24:06;7.00;;;4.30;;
45642;SDS011;31358;46.008;11.144;2022-07-18T08:26:32;6.57;;;4.45;;
45642;SDS011;31358;46.008;11.144;2022-07-18T08:29:00;7.93;;;4.80;;
45642;SDS011;31358;46.008;11.144;2022-07-18T08:31:27;8.95;;;4.03;;
45642;SDS011;31358;46.008;11.144;2022-07-18T08:33:52;8.75;;;4.68;;
45642;SDS011;31358;46.008;11.144;2022-07-18T08:36:18;6.00;;;4.22;;
45642;SDS011;31358;46.008;11.144;2022-07-18T08:38:45;7.88;;;4.55;;
45642;SDS011;31358;46.008;11.144;2022-07-18T08:41:11;8.13;;;4.10;;
45642;SDS011;31358;46.008;11.144;2022-07-18T08:43:36;7.72;;;4.60;;
45642;SDS011;31358;46.008;11.144;2022-07-18T08:46:04;8.75;;;4.47;;
45642;SDS011;31358;46.008;11.144;2022-07-18T08:48:31;6.65;;;4.78;;
45642;SDS011;31358;46.008;11.144;2022-07-18T08:50:58;6.63;;;4.25;;
45642;SDS011;31358;46.008;11.144;2022-07-18T08:53:24;7.28;;;4.97;;
45642;SDS011;31358;46.008;11.144;2022-07-18T08:55:51;6.45;;;4.75;;
45642;SDS011;31358;46.008;11.144;2022-07-18T08:58:16;7.22;;;4.13;;
45642;SDS011;31358;46.008;11.144;2022-07-18T09:00:43;7.10;;;5.18;;
45642;SDS011;31358;46.008;11.144;2022-07-18T09:03:10;7.20;;;4.75;;
45642;SDS011;31358;46.008;11.144;2022-07-18T09:05:36;7.03;;;4.55;;
45642;SDS011;31358;46.008;11.144;2022-07-18T09:08:12;9.57;;;3.95;;
45642;SDS011;31358;46.008;11.144;2022-07-18T09:10:52;5.95;;;4.70;;
45642;SDS011;31358;46.008;11.144;2022-07-18T09:13:20;6.95;;;4.88;;
45642;SDS011;31358;46.008;11.144;2022-07-18T09:18:26;18.73;;;4.90;;
45642;SDS011;31358;46.008;11.144;2022-07-18T09:21:00;16.65;;;5.18;;
45642;SDS011;31358;46.008;11.144;2022-07-18T09:23:36;6.57;;;4.20;;
45642;SDS011;31358;46.008;11.144;2022-07-18T09:26:04;6.22;;;4.47;;
45642;SDS011;31358;46.008;11.144;2022-07-18T09:28:47;8.23;;;4.03;;
45642;SDS011;31358;46.008;11.144;2022-07-18T09:31:21;8.48;;;4.22;;
45642;SDS011;31358;46.008;11.144;2022-07-18T09:33:56;7.05;;;4.30;;
45642;SDS011;31358;46.008;11.144;2022-07-18T09:36:24;7.93;;;4.80;;
45642;SDS011;31358;46.008;11.144;2022-07-18T09:38:50;5.15;;;4.05;;
45642;SDS011;31358;46.008;11.144;2022-07-18T09:41:16;6.22;;;4.47;;
45642;SDS011;31358;46.008;11.144;2022-07-18T09:43:56;6.93;;;4.05;;
45642;SDS011;31358;46.008;11.144;2022-07-18T09:46:22;6.38;;;4.15;;
45642;SDS011;31358;46.008;11.144;2022-07-18T09:48:47;8.05;;;4.18;;
45642;SDS011;31358;46.008;11.144;2022-07-18T09:51:32;9.18;;;4.68;;
45642;SDS011;31358;46.008;11.144;2022-07-18T09:53:58;6.60;;;4.70;;
45642;SDS011;31358;46.008;11.144;2022-07-18T09:56:26;6.60;;;4.18;;
45642;SDS011;31358;46.008;11.144;2022-07-18T09:58:53;10.60;;;3.75;;
45642;SDS011;31358;46.008;11.144;2022-07-18T10:01:21;8.93;;;4.88;;
45642;SDS011;31358;46.008;11.144;2022-07-18T10:03:47;6.03;;;4.85;;
45642;SDS011;31358;46.008;11.144;2022-07-18T10:06:14;7.20;;;4.80;;
45642;SDS011;31358;46.008;11.144;2022-07-18T10:08:41;10.13;;;4.90;;
45642;SDS011;31358;46.008;11.144;2022-07-18T10:11:07;6.50;;;4.68;;
45642;SDS011;31358;46.008;11.144;2022-07-18T10:13:34;7.43;;;4.90;;
45642;SDS011;31358;46.008;11.144;2022-07-18T10:16:00;9.48;;;4.97;;
45642;SDS011;31358;46.008;11.144;2022-07-18T10:18:28;8.40;;;5.18;;
45642;SDS011;31358;46.008;11.144;2022-07-18T10:36:32;7.90;;;5.88;;
45642;SDS011;31358;46.008;11.144;2022-07-18T10:39:12;7.07;;;5.68;;
45642;SDS011;31358;46.008;11.144;2022-07-18T10:57:31;7.30;;;5.47;;
45642;SDS011;31358;46.008;11.144;2022-07-18T11:00:43;8.25;;;6.28;;
45642;SDS011;31358;46.008;11.144;2022-07-18T11:13:21;9.65;;;5.30;;
45642;SDS011;31358;46.008;11.144;2022-07-18T11:16:03;14.95;;;5.97;;
45642;SDS011;31358;46.008;11.144;2022-07-18T11:23:48;10.60;;;5.35;;
45642;SDS011;31358;46.008;11.144;2022-07-18T11:26:16;8.80;;;5.38;;
45642;SDS011;31358;46.008;11.144;2022-07-18T11:28:47;66.28;;;9.75;;
45642;SDS011;31358;46.008;11.144;2022-07-18T11:31:16;9.15;;;5.40;;
45642;SDS011;31358;46.008;11.144;2022-07-18T11:33:45;10.75;;;5.35;;
45642;SDS011;31358;46.008;11.144;2022-07-18T11:36:15;12.07;;;5.53;;
45642;SDS011;31358;46.008;11.144;2022-07-18T11:38:55;7.85;;;5.70;;
45642;SDS011;31358;46.008;11.144;2022-07-18T11:41:22;7.22;;;5.38;;
45642;SDS011;31358;46.008;11.144;2022-07-18T11:43:49;7.72;;;5.10;;
45642;SDS011;31358;46.008;11.144;2022-07-18T11:46:17;6.18;;;4.97;;
45642;SDS011;31358;46.008;11.144;2022-07-18T11:48:45;6.40;;;5.40;;
45642;SDS011;31358;46.008;11.144;2022-07-18T11:51:18;6.30;;;5.03;;
45642;SDS011;31358;46.008;11.144;2022-07-18T11:53:45;10.70;;;5.27;;
45642;SDS011;31358;46.008;11.144;2022-07-18T11:56:20;7.80;;;5.45;;
45642;SDS011;31358;46.008;11.144;2022-07-18T11:58:48;8.43;;;5.35;;
45642;SDS011;31358;46.008;11.144;2022-07-18T12:01:15;8.98;;;5.78;;
45642;SDS011;31358;46.008;11.144;2022-07-18T12:03:42;12.25;;;5.10;;
45642;SDS011;31358;46.008;11.144;2022-07-18T12:06:20;10.65;;;5.40;;
45642;SDS011;31358;46.008;11.144;2022-07-18T12:08:50;8.95;;;5.28;;
45642;SDS011;31358;46.008;11.144;2022-07-18T12:18:55;7.40;;;6.22;;
45642;SDS011;31358;46.008;11.144;2022-07-18T12:26:43;8.27;;;5.55;;
45642;SDS011;31358;46.008;11.144;2022-07-18T12:29:09;9.88;;;5.13;;
45642;SDS011;31358;46.008;11.144;2022-07-18T12:31:39;7.50;;;4.82;;
45642;SDS011;31358;46.008;11.144;2022-07-18T12:36:55;10.02;;;5.35;;
45642;SDS011;31358;46.008;11.144;2022-07-18T12:39:32;13.80;;;4.50;;
45642;SDS011;31358;46.008;11.144;2022-07-18T12:41:58;9.02;;;4.85;;
45642;SDS011;31358;46.008;11.144;2022-07-18T12:44:25;13.35;;;5.00;;
45642;SDS011;31358;46.008;11.144;2022-07-18T12:46:52;6.78;;;5.55;;
45642;SDS011;31358;46.008;11.144;2022-07-18T12:49:18;8.52;;;5.43;;
45642;SDS011;31358;46.008;11.144;2022-07-18T12:51:44;6.32;;;5.50;;
45642;SDS011;31358;46.008;11.144;2022-07-18T12:54:10;6.07;;;4.70;;
45642;SDS011;31358;46.008;11.144;2022-07-18T12:56:36;9.70;;;4.68;;
45642;SDS011;31358;46.008;11.144;2022-07-18T12:59:02;8.13;;;4.60;;
45642;SDS011;31358;46.008;11.144;2022-07-18T13:01:28;9.00;;;4.78;;
45642;SDS011;31358;46.008;11.144;2022-07-18T13:03:53;8.27;;;5.20;;
45642;SDS011;31358;46.008;11.144;2022-07-18T13:06:19;11.13;;;5.43;;
45642;SDS011;31358;46.008;11.144;2022-07-18T13:08:45;6.93;;;5.35;;
45642;SDS011;31358;46.008;11.144;2022-07-18T13:11:10;10.27;;;5.38;;
45642;SDS011;31358;46.008;11.144;2022-07-18T13:13:36;10.05;;;5.10;;
45642;SDS011;31358;46.008;11.144;2022-07-18T13:16:02;9.98;;;5.28;;
45642;SDS011;31358;46.008;11.144;2022-07-18T13:18:28;6.75;;;5.28;;
45642;SDS011;31358;46.008;11.144;2022-07-18T13:20:54;8.07;;;4.63;;
45642;SDS011;31358;46.008;11.144;2022-07-18T13:23:19;7.20;;;5.15;;
45642;SDS011;31358;46.008;11.144;2022-07-18T13:25:45;8.82;;;4.22;;
45642;SDS011;31358;46.008;11.144;2022-07-18T13:28:11;8.43;;;4.95;;
45642;SDS011;31358;46.008;11.144;2022-07-18T13:30:37;6.90;;;5.25;;
45642;SDS011;31358;46.008;11.144;2022-07-18T13:33:06;11.27;;;5.22;;
45642;SDS011;31358;46.008;11.144;2022-07-18T13:35:32;8.75;;;4.80;;
45642;SDS011;31358;46.008;11.144;2022-07-18T13:37:59;6.45;;;4.90;;
45642;SDS011;31358;46.008;11.144;2022-07-18T13:40:25;8.88;;;5.60;;
45642;SDS011;31358;46.008;11.144;2022-07-18T13:42:50;7.72;;;5.03;;
45642;SDS011;31358;46.008;11.144;2022-07-18T13:45:16;7.75;;;4.60;;
45642;SDS011;31358;46.008;11.144;2022-07-18T13:47:42;6.65;;;4.57;;
45642;SDS011;31358;46.008;11.144;2022-07-18T13:50:09;8.07;;;5.05;;
45642;SDS011;31358;46.008;11.144;2022-07-18T13:52:36;15.23;;;5.85;;
45642;SDS011;31358;46.008;11.144;2022-07-18T13:55:02;15.55;;;4.50;;
45642;SDS011;31358;46.008;11.144;2022-07-18T13:57:28;9.48;;;5.65;;
45642;SDS011;31358;46.008;11.144;2022-07-18T13:59:54;7.47;;;4.85;;
45642;SDS011;31358;46.008;11.144;2022-07-18T14:02:19;27.52;;;5.70;;
45642;SDS011;31358;46.008;11.144;2022-07-18T14:04:45;7.82;;;5.35;;
45642;SDS011;31358;46.008;11.144;2022-07-18T14:07:11;10.52;;;5.85;;
45642;SDS011;31358;46.008;11.144;2022-07-18T14:09:38;11.02;;;5.32;;
45642;SDS011;31358;46.008;11.144;2022-07-18T14:12:04;8.38;;;5.00;;
45642;SDS011;31358;46.008;11.144;2022-07-18T14:14:30;6.95;;;5.05;;
45642;SDS011;31358;46.008;11.144;2022-07-18T14:16:55;7.10;;;4.85;;
45642;SDS011;31358;46.008;11.144;2022-07-18T14:19:21;17.67;;;5.47;;
45642;SDS011;31358;46.008;11.144;2022-07-18T14:21:47;9.95;;;5.20;;
45642;SDS011;31358;46.008;11.144;2022-07-18T14:24:13;9.23;;;5.20;;
45642;SDS011;31358;46.008;11.144;2022-07-18T14:26:38;10.65;;;4.72;;
45642;SDS011;31358;46.008;11.144;2022-07-18T14:29:04;8.35;;;4.97;;
45642;SDS011;31358;46.008;11.144;2022-07-18T14:31:30;9.57;;;4.75;;
45642;SDS011;31358;46.008;11.144;2022-07-18T14:33:56;8.68;;;5.15;;
45642;SDS011;31358;46.008;11.144;2022-07-18T14:36:21;8.95;;;4.93;;
45642;SDS011;31358;46.008;11.144;2022-07-18T14:38:47;8.43;;;4.93;;
45642;SDS011;31358;46.008;11.144;2022-07-18T14:41:13;12.55;;;5.30;;
45642;SDS011;31358;46.008;11.144;2022-07-18T14:43:38;10.50;;;5.22;;
45642;SDS011;31358;46.008;11.144;2022-07-18T14:46:04;10.52;;;5.13;;
45642;SDS011;31358;46.008;11.144;2022-07-18T14:48:30;8.55;;;4.72;;
45642;SDS011;31358;46.008;11.144;2022-07-18T14:50:55;7.88;;;5.63;;
45642;SDS011;31358;46.008;11.144;2022-07-18T14:53:21;7.00;;;4.97;;
45642;SDS011;31358;46.008;11.144;2022-07-18T14:55:47;13.48;;;5.10;;
45642;SDS011;31358;46.008;11.144;2022-07-18T14:58:13;8.73;;;4.80;;
45642;SDS011;31358;46.008;11.144;2022-07-18T15:00:39;10.68;;;5.53;;
45642;SDS011;31358;46.008;11.144;2022-07-18T15:03:04;10.80;;;5.28;;
45642;SDS011;31358;46.008;11.144;2022-07-18T15:05:30;12.60;;;5.90;;
45642;SDS011;31358;46.008;11.144;2022-07-18T15:07:56;7.05;;;4.32;;
45642;SDS011;31358;46.008;11.144;2022-07-18T15:10:22;9.90;;;5.10;;
45642;SDS011;31358;46.008;11.144;2022-07-18T15:12:47;9.15;;;5.38;;
45642;SDS011;31358;46.008;11.144;2022-07-18T15:15:13;8.63;;;5.70;;
45642;SDS011;31358;46.008;11.144;2022-07-18T15:17:39;13.05;;;5.10;;
45642;SDS011;31358;46.008;11.144;2022-07-18T15:20:05;12.30;;;5.43;;
45642;SDS011;31358;46.008;11.144;2022-07-18T15:22:31;8.68;;;4.53;;
45642;SDS011;31358;46.008;11.144;2022-07-18T15:24:57;11.18;;;5.38;;
45642;SDS011;31358;46.008;11.144;2022-07-18T15:27:23;5.57;;;4.60;;
45642;SDS011;31358;46.008;11.144;2022-07-18T15:29:48;10.20;;;5.88;;
45642;SDS011;31358;46.008;11.144;2022-07-18T15:32:14;7.38;;;4.70;;
45642;SDS011;31358;46.008;11.144;2022-07-18T15:34:40;7.53;;;4.38;;
45642;SDS011;31358;46.008;11.144;2022-07-18T15:37:06;11.93;;;5.03;;
45642;SDS011;31358;46.008;11.144;2022-07-18T15:39:32;7.93;;;5.70;;